sensor_id;sensor_type;location;lat;lon;timestamp;temperature;humidity
29201;DHT22;16244;51.956;12.980;2023-07-29T00:00:06;18.00;99.90
29201;DHT22;16244;51.956;12.980;2023-07-29T00:02:35;18.00;99.90
29201;DHT22;16244;51.956;12.980;2023-07-29T00:05:04;18.00;99.90
29201;DHT22;16244;51.956;12.980;2023-07-29T00:07:32;17.90;99.90
29201;DHT22;16244;51.956;12.980;2023-07-29T00:09:59;17.90;99.90
29201;DHT22;16244;51.956;12.980;2023-07-29T00:12:27;17.90;99.90
29201;DHT22;16244;51.956;12.980;2023-07-29T00:14:55;17.90;99.90
29201;DHT22;16244;51.956;12.980;2023-07-29T00:17:22;17.90;99.90
29201;DHT22;16244;51.956;12.980;2023-07-29T00:19:50;17.80;99.90
29201;DHT22;16244;51.956;12.980;2023-07-29T00:22:19;17.80;99.90
29201;DHT22;16244;51.956;12.980;2023-07-29T00:24:51;17.80;99.90
29201;DHT22;16244;51.956;12.980;2023-07-29T00:27:19;17.60;99.90
29201;DHT22;16244;51.956;12.980;2023-07-29T00:29:52;17.60;99.90
29201;DHT22;16244;51.956;12.980;2023-07-29T00:32:24;17.50;99.90
29201;DHT22;16244;51.956;12.980;2023-07-29T00:34:52;17.40;99.90
29201;DHT22;16244;51.956;12.980;2023-07-29T00:37:21;17.40;99.90
29201;DHT22;16244;51.956;12.980;2023-07-29T00:39:48;17.40;99.90
29201;DHT22;16244;51.956;12.980;2023-07-29T00:42:16;17.40;99.90
29201;DHT22;16244;51.956;12.980;2023-07-29T00:44:43;17.40;99.90
29201;DHT22;16244;51.956;12.980;2023-07-29T00:47:11;17.40;99.90
29201;DHT22;16244;51.956;12.980;2023-07-29T00:49:39;17.40;99.90
29201;DHT22;16244;51.956;12.980;2023-07-29T00:52:07;17.20;99.90
29201;DHT22;16244;51.956;12.980;2023-07-29T00:54:39;17.10;99.90
29201;DHT22;16244;51.956;12.980;2023-07-29T00:57:07;17.10;99.90
29201;DHT22;16244;51.956;12.980;2023-07-29T00:59:37;17.10;99.90
29201;DHT22;16244;51.956;12.980;2023-07-29T01:02:13;16.80;99.90
29201;DHT22;16244;51.956;12.980;2023-07-29T01:04:46;16.60;99.90
29201;DHT22;16244;51.956;12.980;2023-07-29T01:07:30;16.60;99.90
29201;DHT22;16244;51.956;12.980;2023-07-29T01:10:10;16.60;99.90
29201;DHT22;16244;51.956;12.980;2023-07-29T01:12:51;16.60;99.90
29201;DHT22;16244;51.956;12.980;2023-07-29T01:15:31;16.60;99.90
29201;DHT22;16244;51.956;12.980;2023-07-29T01:21:20;16.60;99.90
29201;DHT22;16244;51.956;12.980;2023-07-29T01:24:16;16.60;99.90
29201;DHT22;16244;51.956;12.980;2023-07-29T01:27:14;16.50;99.90
29201;DHT22;16244;51.956;12.980;2023-07-29T01:30:02;16.50;99.90
29201;DHT22;16244;51.956;12.980;2023-07-29T01:33:26;16.40;99.90
29201;DHT22;16244;51.956;12.980;2023-07-29T01:36:03;16.30;99.90
29201;DHT22;16244;51.956;12.980;2023-07-29T01:38:38;16.20;99.90
29201;DHT22;16244;51.956;12.980;2023-07-29T01:41:10;16.20;99.90
29201;DHT22;16244;51.956;12.980;2023-07-29T01:43:40;16.20;99.90
29201;DHT22;16244;51.956;12.980;2023-07-29T01:46:12;16.10;99.90
29201;DHT22;16244;51.956;12.980;2023-07-29T01:48:41;16.20;99.90
29201;DHT22;16244;51.956;12.980;2023-07-29T01:51:11;16.30;99.90
29201;DHT22;16244;51.956;12.980;2023-07-29T01:53:39;16.50;99.90
29201;DHT22;16244;51.956;12.980;2023-07-29T01:56:07;16.60;99.90
29201;DHT22;16244;51.956;12.980;2023-07-29T01:58:35;16.70;99.90
29201;DHT22;16244;51.956;12.980;2023-07-29T02:01:03;16.80;99.90
29201;DHT22;16244;51.956;12.980;2023-07-29T02:03:30;17.00;99.90
29201;DHT22;16244;51.956;12.980;2023-07-29T02:05:58;17.00;99.90
29201;DHT22;16244;51.956;12.980;2023-07-29T02:08:26;17.10;99.90
29201;DHT22;16244;51.956;12.980;2023-07-29T02:10:53;17.20;99.90
29201;DHT22;16244;51.956;12.980;2023-07-29T02:13:21;17.30;99.90
29201;DHT22;16244;51.956;12.980;2023-07-29T02:15:49;17.40;99.90
29201;DHT22;16244;51.956;12.980;2023-07-29T02:18:17;17.40;99.90
29201;DHT22;16244;51.956;12.980;2023-07-29T02:20:46;17.40;99.90
29201;DHT22;16244;51.956;12.980;2023-07-29T02:23:15;17.50;99.90
29201;DHT22;16244;51.956;12.980;2023-07-29T02:25:43;17.50;99.90
29201;DHT22;16244;51.956;12.980;2023-07-29T02:28:10;17.50;99.90
29201;DHT22;16244;51.956;12.980;2023-07-29T02:30:41;17.50;99.90
29201;DHT22;16244;51.956;12.980;2023-07-29T02:33:12;17.50;99.90
29201;DHT22;16244;51.956;12.980;2023-07-29T02:35:42;17.60;99.90
29201;DHT22;16244;51.956;12.980;2023-07-29T02:38:11;17.60;99.90
29201;DHT22;16244;51.956;12.980;2023-07-29T02:40:38;17.50;99.90
29201;DHT22;16244;51.956;12.980;2023-07-29T02:43:05;17.60;99.90
29201;DHT22;16244;51.956;12.980;2023-07-29T02:45:35;17.60;99.90
29201;DHT22;16244;51.956;12.980;2023-07-29T02:48:02;17.60;99.90
29201;DHT22;16244;51.956;12.980;2023-07-29T02:50:35;17.60;99.90
29201;DHT22;16244;51.956;12.980;2023-07-29T02:53:05;17.60;99.90
29201;DHT22;16244;51.956;12.980;2023-07-29T02:55:32;17.50;99.90
29201;DHT22;16244;51.956;12.980;2023-07-29T02:58:00;17.50;99.90
29201;DHT22;16244;51.956;12.980;2023-07-29T03:00:32;17.60;99.90
29201;DHT22;16244;51.956;12.980;2023-07-29T03:03:04;17.60;99.90
29201;DHT22;16244;51.956;12.980;2023-07-29T03:05:35;17.60;99.90
29201;DHT22;16244;51.956;12.980;2023-07-29T03:08:07;17.50;99.90
29201;DHT22;16244;51.956;12.980;2023-07-29T03:10:38;17.50;99.90
29201;DHT22;16244;51.956;12.980;2023-07-29T03:13:18;17.40;99.90
29201;DHT22;16244;51.956;12.980;2023-07-29T03:16:19;17.40;99.90
29201;DHT22;16244;51.956;12.980;2023-07-29T03:18:57;17.40;99.90
29201;DHT22;16244;51.956;12.980;2023-07-29T03:21:32;17.50;99.90
29201;DHT22;16244;51.956;12.980;2023-07-29T03:24:04;17.60;99.90
29201;DHT22;16244;51.956;12.980;2023-07-29T03:26:37;17.60;99.90
29201;DHT22;16244;51.956;12.980;2023-07-29T03:29:12;17.60;99.90
29201;DHT22;16244;51.956;12.980;2023-07-29T03:31:42;17.60;99.90
29201;DHT22;16244;51.956;12.980;2023-07-29T03:34:15;17.60;99.90
29201;DHT22;16244;51.956;12.980;2023-07-29T03:37:03;17.60;99.90
29201;DHT22;16244;51.956;12.980;2023-07-29T03:39:41;17.60;99.90
29201;DHT22;16244;51.956;12.980;2023-07-29T03:42:09;17.60;99.90
29201;DHT22;16244;51.956;12.980;2023-07-29T03:44:36;17.60;99.90
29201;DHT22;16244;51.956;12.980;2023-07-29T03:47:05;17.60;99.90
29201;DHT22;16244;51.956;12.980;2023-07-29T03:49:33;17.60;99.90
29201;DHT22;16244;51.956;12.980;2023-07-29T03:52:02;17.60;99.90
29201;DHT22;16244;51.956;12.980;2023-07-29T03:54:30;17.50;99.90
29201;DHT22;16244;51.956;12.980;2023-07-29T03:56:58;17.50;99.90
29201;DHT22;16244;51.956;12.980;2023-07-29T03:59:28;17.40;99.90
29201;DHT22;16244;51.956;12.980;2023-07-29T04:01:59;17.20;99.90
29201;DHT22;16244;51.956;12.980;2023-07-29T04:04:29;17.20;99.90
29201;DHT22;16244;51.956;12.980;2023-07-29T04:07:05;17.20;99.90
29201;DHT22;16244;51.956;12.980;2023-07-29T04:09:38;17.20;99.90
29201;DHT22;16244;51.956;12.980;2023-07-29T04:12:06;17.10;99.90
29201;DHT22;16244;51.956;12.980;2023-07-29T04:14:34;17.00;99.90
29201;DHT22;16244;51.956;12.980;2023-07-29T04:17:01;17.00;99.90
29201;DHT22;16244;51.956;12.980;2023-07-29T04:19:29;17.00;99.90
29201;DHT22;16244;51.956;12.980;2023-07-29T04:21:57;17.00;99.90
29201;DHT22;16244;51.956;12.980;2023-07-29T04:24:25;17.00;99.90
29201;DHT22;16244;51.956;12.980;2023-07-29T04:26:53;17.00;99.90
29201;DHT22;16244;51.956;12.980;2023-07-29T04:29:20;17.10;99.90
29201;DHT22;16244;51.956;12.980;2023-07-29T04:31:49;17.10;99.90
29201;DHT22;16244;51.956;12.980;2023-07-29T04:34:17;17.20;99.90
29201;DHT22;16244;51.956;12.980;2023-07-29T04:36:45;17.30;99.90
29201;DHT22;16244;51.956;12.980;2023-07-29T04:39:17;17.40;99.90
29201;DHT22;16244;51.956;12.980;2023-07-29T04:41:49;17.50;99.90
29201;DHT22;16244;51.956;12.980;2023-07-29T04:44:17;17.50;99.90
29201;DHT22;16244;51.956;12.980;2023-07-29T04:46:46;17.60;99.90
29201;DHT22;16244;51.956;12.980;2023-07-29T04:49:15;17.70;99.90
29201;DHT22;16244;51.956;12.980;2023-07-29T04:51:45;17.80;99.90
29201;DHT22;16244;51.956;12.980;2023-07-29T04:54:14;17.90;99.90
29201;DHT22;16244;51.956;12.980;2023-07-29T04:56:44;18.00;99.90
29201;DHT22;16244;51.956;12.980;2023-07-29T04:59:16;18.00;99.90
29201;DHT22;16244;51.956;12.980;2023-07-29T05:01:47;18.20;99.90
29201;DHT22;16244;51.956;12.980;2023-07-29T05:04:18;18.20;99.90
29201;DHT22;16244;51.956;12.980;2023-07-29T05:06:47;18.30;99.90
29201;DHT22;16244;51.956;12.980;2023-07-29T05:09:21;18.30;99.90
29201;DHT22;16244;51.956;12.980;2023-07-29T05:11:55;18.40;99.90
29201;DHT22;16244;51.956;12.980;2023-07-29T05:17:34;18.60;99.90
29201;DHT22;16244;51.956;12.980;2023-07-29T05:20:03;18.60;99.90
29201;DHT22;16244;51.956;12.980;2023-07-29T05:22:34;18.80;99.90
29201;DHT22;16244;51.956;12.980;2023-07-29T05:25:04;18.80;99.90
29201;DHT22;16244;51.956;12.980;2023-07-29T05:27:33;18.90;99.90
29201;DHT22;16244;51.956;12.980;2023-07-29T05:30:02;19.00;99.90
29201;DHT22;16244;51.956;12.980;2023-07-29T05:32:32;19.10;99.90
29201;DHT22;16244;51.956;12.980;2023-07-29T05:35:01;19.20;99.90
29201;DHT22;16244;51.956;12.980;2023-07-29T05:37:29;19.30;99.90
29201;DHT22;16244;51.956;12.980;2023-07-29T05:39:56;19.40;99.90
29201;DHT22;16244;51.956;12.980;2023-07-29T05:42:24;19.50;99.90
29201;DHT22;16244;51.956;12.980;2023-07-29T05:44:51;19.60;99.90
29201;DHT22;16244;51.956;12.980;2023-07-29T05:47:18;19.70;99.90
29201;DHT22;16244;51.956;12.980;2023-07-29T05:49:46;19.80;99.90
29201;DHT22;16244;51.956;12.980;2023-07-29T05:52:15;19.90;99.90
29201;DHT22;16244;51.956;12.980;2023-07-29T05:54:43;19.90;99.90
29201;DHT22;16244;51.956;12.980;2023-07-29T05:57:11;20.00;99.90
29201;DHT22;16244;51.956;12.980;2023-07-29T05:59:40;20.10;99.90
29201;DHT22;16244;51.956;12.980;2023-07-29T06:02:07;20.20;99.90
29201;DHT22;16244;51.956;12.980;2023-07-29T06:04:36;20.20;99.90
29201;DHT22;16244;51.956;12.980;2023-07-29T06:07:04;20.20;99.90
29201;DHT22;16244;51.956;12.980;2023-07-29T06:09:33;20.30;99.90
29201;DHT22;16244;51.956;12.980;2023-07-29T06:12:01;20.40;99.90
29201;DHT22;16244;51.956;12.980;2023-07-29T06:14:30;20.50;99.90
29201;DHT22;16244;51.956;12.980;2023-07-29T06:16:59;20.60;99.90
29201;DHT22;16244;51.956;12.980;2023-07-29T06:19:27;20.60;99.90
29201;DHT22;16244;51.956;12.980;2023-07-29T06:21:55;20.70;99.90
29201;DHT22;16244;51.956;12.980;2023-07-29T06:24:23;20.80;99.90
29201;DHT22;16244;51.956;12.980;2023-07-29T06:26:53;21.00;99.90
29201;DHT22;16244;51.956;12.980;2023-07-29T06:29:22;21.10;99.90
29201;DHT22;16244;51.956;12.980;2023-07-29T06:31:53;21.30;99.90
29201;DHT22;16244;51.956;12.980;2023-07-29T06:34:24;21.40;99.90
29201;DHT22;16244;51.956;12.980;2023-07-29T06:36:51;21.40;99.90
29201;DHT22;16244;51.956;12.980;2023-07-29T06:39:19;21.40;99.90
29201;DHT22;16244;51.956;12.980;2023-07-29T06:41:46;21.40;99.90
29201;DHT22;16244;51.956;12.980;2023-07-29T06:44:16;21.40;99.90
29201;DHT22;16244;51.956;12.980;2023-07-29T06:46:46;21.30;99.90
29201;DHT22;16244;51.956;12.980;2023-07-29T06:49:13;21.40;99.90
29201;DHT22;16244;51.956;12.980;2023-07-29T06:51:41;21.40;99.90
29201;DHT22;16244;51.956;12.980;2023-07-29T06:54:08;21.50;99.90
29201;DHT22;16244;51.956;12.980;2023-07-29T06:56:37;21.60;99.90
29201;DHT22;16244;51.956;12.980;2023-07-29T06:59:05;21.80;99.90
29201;DHT22;16244;51.956;12.980;2023-07-29T07:01:37;22.00;99.90
29201;DHT22;16244;51.956;12.980;2023-07-29T07:04:08;22.20;99.90
29201;DHT22;16244;51.956;12.980;2023-07-29T07:06:38;22.20;99.90
29201;DHT22;16244;51.956;12.980;2023-07-29T07:09:05;22.30;99.90
29201;DHT22;16244;51.956;12.980;2023-07-29T07:11:35;22.30;99.90
29201;DHT22;16244;51.956;12.980;2023-07-29T07:14:06;22.50;99.90
29201;DHT22;16244;51.956;12.980;2023-07-29T07:16:36;22.80;99.90
29201;DHT22;16244;51.956;12.980;2023-07-29T07:19:06;23.00;99.80
29201;DHT22;16244;51.956;12.980;2023-07-29T07:21:34;23.30;99.90
29201;DHT22;16244;51.956;12.980;2023-07-29T07:24:01;23.50;98.30
29201;DHT22;16244;51.956;12.980;2023-07-29T07:26:30;23.50;98.20
29201;DHT22;16244;51.956;12.980;2023-07-29T07:28:58;23.60;96.20
29201;DHT22;16244;51.956;12.980;2023-07-29T07:31:27;23.80;97.40
29201;DHT22;16244;51.956;12.980;2023-07-29T07:33:56;23.90;96.00
29201;DHT22;16244;51.956;12.980;2023-07-29T07:36:24;24.10;94.10
29201;DHT22;16244;51.956;12.980;2023-07-29T07:38:52;24.40;93.80
29201;DHT22;16244;51.956;12.980;2023-07-29T07:41:20;24.40;93.10
29201;DHT22;16244;51.956;12.980;2023-07-29T07:43:56;24.60;92.50
29201;DHT22;16244;51.956;12.980;2023-07-29T07:46:42;24.70;92.30
29201;DHT22;16244;51.956;12.980;2023-07-29T07:49:11;25.10;91.20
29201;DHT22;16244;51.956;12.980;2023-07-29T07:51:40;25.40;93.10
29201;DHT22;16244;51.956;12.980;2023-07-29T07:54:08;25.40;86.80
29201;DHT22;16244;51.956;12.980;2023-07-29T07:56:36;25.00;90.40
29201;DHT22;16244;51.956;12.980;2023-07-29T07:59:07;25.20;89.90
29201;DHT22;16244;51.956;12.980;2023-07-29T08:01:36;25.00;90.40
29201;DHT22;16244;51.956;12.980;2023-07-29T08:04:04;24.90;88.10
29201;DHT22;16244;51.956;12.980;2023-07-29T08:06:33;24.60;89.60
29201;DHT22;16244;51.956;12.980;2023-07-29T08:09:02;24.40;91.40
29201;DHT22;16244;51.956;12.980;2023-07-29T08:11:34;24.30;90.70
29201;DHT22;16244;51.956;12.980;2023-07-29T08:14:06;24.30;92.00
29201;DHT22;16244;51.956;12.980;2023-07-29T08:16:35;24.40;92.40
29201;DHT22;16244;51.956;12.980;2023-07-29T08:19:06;24.30;91.80
29201;DHT22;16244;51.956;12.980;2023-07-29T08:21:39;24.20;91.90
29201;DHT22;16244;51.956;12.980;2023-07-29T08:24:07;24.10;91.10
29201;DHT22;16244;51.956;12.980;2023-07-29T08:26:36;24.00;91.00
29201;DHT22;16244;51.956;12.980;2023-07-29T08:29:04;24.10;92.60
29201;DHT22;16244;51.956;12.980;2023-07-29T08:31:32;24.30;91.90
29201;DHT22;16244;51.956;12.980;2023-07-29T08:34:00;24.50;91.80
29201;DHT22;16244;51.956;12.980;2023-07-29T08:36:28;24.70;91.20
29201;DHT22;16244;51.956;12.980;2023-07-29T08:38:57;24.80;90.20
29201;DHT22;16244;51.956;12.980;2023-07-29T08:41:26;25.00;90.00
29201;DHT22;16244;51.956;12.980;2023-07-29T08:44:01;25.10;88.70
29201;DHT22;16244;51.956;12.980;2023-07-29T08:46:29;25.10;86.40
29201;DHT22;16244;51.956;12.980;2023-07-29T08:48:57;25.10;86.80
29201;DHT22;16244;51.956;12.980;2023-07-29T08:51:25;25.30;85.50
29201;DHT22;16244;51.956;12.980;2023-07-29T08:53:54;25.30;82.40
29201;DHT22;16244;51.956;12.980;2023-07-29T08:56:24;25.40;81.90
29201;DHT22;16244;51.956;12.980;2023-07-29T08:58:52;25.80;80.50
29201;DHT22;16244;51.956;12.980;2023-07-29T09:01:19;26.00;79.40
29201;DHT22;16244;51.956;12.980;2023-07-29T09:03:47;26.30;79.00
29201;DHT22;16244;51.956;12.980;2023-07-29T09:06:14;26.50;76.00
29201;DHT22;16244;51.956;12.980;2023-07-29T09:08:43;26.50;79.60
29201;DHT22;16244;51.956;12.980;2023-07-29T09:11:13;26.50;77.00
29201;DHT22;16244;51.956;12.980;2023-07-29T09:13:44;26.70;71.30
29201;DHT22;16244;51.956;12.980;2023-07-29T09:16:12;26.80;70.20
29201;DHT22;16244;51.956;12.980;2023-07-29T09:18:39;26.60;71.80
29201;DHT22;16244;51.956;12.980;2023-07-29T09:21:07;26.60;71.60
29201;DHT22;16244;51.956;12.980;2023-07-29T09:23:41;26.80;69.00
29201;DHT22;16244;51.956;12.980;2023-07-29T09:26:09;26.80;70.30
29201;DHT22;16244;51.956;12.980;2023-07-29T09:28:38;27.10;71.10
29201;DHT22;16244;51.956;12.980;2023-07-29T09:31:19;27.20;66.40
29201;DHT22;16244;51.956;12.980;2023-07-29T09:33:46;27.20;69.00
29201;DHT22;16244;51.956;12.980;2023-07-29T09:36:14;27.30;67.30
29201;DHT22;16244;51.956;12.980;2023-07-29T09:38:43;27.70;65.00
29201;DHT22;16244;51.956;12.980;2023-07-29T09:41:12;27.60;63.80
29201;DHT22;16244;51.956;12.980;2023-07-29T09:43:40;27.60;63.50
29201;DHT22;16244;51.956;12.980;2023-07-29T09:46:09;27.30;60.80
29201;DHT22;16244;51.956;12.980;2023-07-29T09:48:38;27.30;64.60
29201;DHT22;16244;51.956;12.980;2023-07-29T09:51:11;27.40;64.40
29201;DHT22;16244;51.956;12.980;2023-07-29T09:53:40;27.10;59.60
29201;DHT22;16244;51.956;12.980;2023-07-29T09:56:08;27.10;66.00
29201;DHT22;16244;51.956;12.980;2023-07-29T09:58:36;27.20;62.70
29201;DHT22;16244;51.956;12.980;2023-07-29T10:01:04;27.20;64.10
29201;DHT22;16244;51.956;12.980;2023-07-29T10:03:34;27.00;64.10
29201;DHT22;16244;51.956;12.980;2023-07-29T10:06:03;27.00;68.60
29201;DHT22;16244;51.956;12.980;2023-07-29T10:08:31;26.80;65.50
29201;DHT22;16244;51.956;12.980;2023-07-29T10:11:02;26.50;71.20
29201;DHT22;16244;51.956;12.980;2023-07-29T10:13:30;26.20;76.20
29201;DHT22;16244;51.956;12.980;2023-07-29T10:15:57;25.70;75.60
29201;DHT22;16244;51.956;12.980;2023-07-29T10:18:25;25.60;79.20
29201;DHT22;16244;51.956;12.980;2023-07-29T10:20:57;25.50;77.80
29201;DHT22;16244;51.956;12.980;2023-07-29T10:23:26;25.30;79.80
29201;DHT22;16244;51.956;12.980;2023-07-29T10:25:57;25.20;88.60
29201;DHT22;16244;51.956;12.980;2023-07-29T10:28:30;25.00;93.60
29201;DHT22;16244;51.956;12.980;2023-07-29T10:30:58;25.00;91.80
29201;DHT22;16244;51.956;12.980;2023-07-29T10:33:26;24.80;91.90
29201;DHT22;16244;51.956;12.980;2023-07-29T10:35:54;24.80;94.00
29201;DHT22;16244;51.956;12.980;2023-07-29T10:38:24;24.90;93.00
29201;DHT22;16244;51.956;12.980;2023-07-29T10:40:53;24.80;91.10
29201;DHT22;16244;51.956;12.980;2023-07-29T10:43:25;24.70;93.30
29201;DHT22;16244;51.956;12.980;2023-07-29T10:45:56;24.70;91.80
29201;DHT22;16244;51.956;12.980;2023-07-29T10:48:40;24.70;92.10
29201;DHT22;16244;51.956;12.980;2023-07-29T10:51:27;24.80;92.50
29201;DHT22;16244;51.956;12.980;2023-07-29T10:53:58;24.90;90.80
29201;DHT22;16244;51.956;12.980;2023-07-29T10:56:27;24.80;90.40
29201;DHT22;16244;51.956;12.980;2023-07-29T10:59:02;25.00;89.20
29201;DHT22;16244;51.956;12.980;2023-07-29T11:01:39;24.90;89.60
29201;DHT22;16244;51.956;12.980;2023-07-29T11:04:26;24.70;90.40
29201;DHT22;16244;51.956;12.980;2023-07-29T11:07:26;24.70;90.10
29201;DHT22;16244;51.956;12.980;2023-07-29T11:10:05;24.50;91.50
29201;DHT22;16244;51.956;12.980;2023-07-29T11:12:44;24.20;90.90
29201;DHT22;16244;51.956;12.980;2023-07-29T11:15:21;24.00;93.60
29201;DHT22;16244;51.956;12.980;2023-07-29T11:17:52;24.00;92.40
29201;DHT22;16244;51.956;12.980;2023-07-29T11:20:21;23.90;92.10
29201;DHT22;16244;51.956;12.980;2023-07-29T11:22:52;23.70;93.60
29201;DHT22;16244;51.956;12.980;2023-07-29T11:25:24;23.70;92.50
29201;DHT22;16244;51.956;12.980;2023-07-29T11:27:53;23.30;87.80
29201;DHT22;16244;51.956;12.980;2023-07-29T11:30:22;22.50;89.80
29201;DHT22;16244;51.956;12.980;2023-07-29T11:32:53;22.00;95.60
29201;DHT22;16244;51.956;12.980;2023-07-29T11:35:21;21.00;99.90
29201;DHT22;16244;51.956;12.980;2023-07-29T11:37:52;19.90;99.90
29201;DHT22;16244;51.956;12.980;2023-07-29T11:40:20;19.50;99.90
29201;DHT22;16244;51.956;12.980;2023-07-29T11:42:50;19.00;99.90
29201;DHT22;16244;51.956;12.980;2023-07-29T11:45:19;18.60;99.90
29201;DHT22;16244;51.956;12.980;2023-07-29T11:47:48;18.70;99.90
29201;DHT22;16244;51.956;12.980;2023-07-29T11:50:15;18.80;99.90
29201;DHT22;16244;51.956;12.980;2023-07-29T11:52:44;19.00;99.90
29201;DHT22;16244;51.956;12.980;2023-07-29T11:55:15;19.10;99.90
29201;DHT22;16244;51.956;12.980;2023-07-29T11:57:43;19.00;99.90
29201;DHT22;16244;51.956;12.980;2023-07-29T12:00:12;19.00;99.90
29201;DHT22;16244;51.956;12.980;2023-07-29T12:02:42;19.00;99.90
29201;DHT22;16244;51.956;12.980;2023-07-29T12:05:12;19.10;99.90
29201;DHT22;16244;51.956;12.980;2023-07-29T12:07:42;19.20;99.90
29201;DHT22;16244;51.956;12.980;2023-07-29T12:10:10;19.30;99.90
29201;DHT22;16244;51.956;12.980;2023-07-29T12:12:44;19.60;99.90
29201;DHT22;16244;51.956;12.980;2023-07-29T12:15:12;19.80;99.90
29201;DHT22;16244;51.956;12.980;2023-07-29T12:17:40;20.00;99.90
29201;DHT22;16244;51.956;12.980;2023-07-29T12:20:09;20.10;99.90
29201;DHT22;16244;51.956;12.980;2023-07-29T12:22:37;20.40;99.90
29201;DHT22;16244;51.956;12.980;2023-07-29T12:25:05;20.50;99.90
29201;DHT22;16244;51.956;12.980;2023-07-29T12:27:33;20.70;99.90
29201;DHT22;16244;51.956;12.980;2023-07-29T12:30:06;20.90;99.90
29201;DHT22;16244;51.956;12.980;2023-07-29T12:32:33;21.00;99.90
29201;DHT22;16244;51.956;12.980;2023-07-29T12:35:10;21.00;99.90
29201;DHT22;16244;51.956;12.980;2023-07-29T12:37:38;20.90;99.90
29201;DHT22;16244;51.956;12.980;2023-07-29T12:40:21;20.80;99.90
29201;DHT22;16244;51.956;12.980;2023-07-29T12:42:49;20.80;99.90
29201;DHT22;16244;51.956;12.980;2023-07-29T12:45:19;20.60;99.90
29201;DHT22;16244;51.956;12.980;2023-07-29T12:47:49;20.60;99.90
29201;DHT22;16244;51.956;12.980;2023-07-29T12:50:17;20.70;99.90
29201;DHT22;16244;51.956;12.980;2023-07-29T12:52:44;20.60;99.90
29201;DHT22;16244;51.956;12.980;2023-07-29T12:55:12;20.60;99.90
29201;DHT22;16244;51.956;12.980;2023-07-29T12:57:41;20.50;99.90
29201;DHT22;16244;51.956;12.980;2023-07-29T13:00:09;20.50;99.90
29201;DHT22;16244;51.956;12.980;2023-07-29T13:02:38;20.40;99.90
29201;DHT22;16244;51.956;12.980;2023-07-29T13:05:09;20.30;99.90
29201;DHT22;16244;51.956;12.980;2023-07-29T13:07:38;20.30;99.90
29201;DHT22;16244;51.956;12.980;2023-07-29T13:10:07;20.20;99.90
29201;DHT22;16244;51.956;12.980;2023-07-29T13:12:36;20.20;99.90
29201;DHT22;16244;51.956;12.980;2023-07-29T13:15:04;20.40;99.90
29201;DHT22;16244;51.956;12.980;2023-07-29T13:17:32;20.50;99.90
29201;DHT22;16244;51.956;12.980;2023-07-29T13:20:01;20.80;99.90
29201;DHT22;16244;51.956;12.980;2023-07-29T13:22:29;21.00;99.90
29201;DHT22;16244;51.956;12.980;2023-07-29T13:24:56;21.00;99.90
29201;DHT22;16244;51.956;12.980;2023-07-29T13:27:24;21.20;99.90
29201;DHT22;16244;51.956;12.980;2023-07-29T13:29:52;21.30;99.90
29201;DHT22;16244;51.956;12.980;2023-07-29T13:32:19;21.50;99.90
29201;DHT22;16244;51.956;12.980;2023-07-29T13:34:47;21.60;99.90
29201;DHT22;16244;51.956;12.980;2023-07-29T13:37:15;21.60;99.90
29201;DHT22;16244;51.956;12.980;2023-07-29T13:39:43;21.60;99.90
29201;DHT22;16244;51.956;12.980;2023-07-29T13:42:10;21.70;99.90
29201;DHT22;16244;51.956;12.980;2023-07-29T13:44:38;21.80;99.90
29201;DHT22;16244;51.956;12.980;2023-07-29T13:47:05;21.90;99.90
29201;DHT22;16244;51.956;12.980;2023-07-29T13:49:33;22.20;99.90
29201;DHT22;16244;51.956;12.980;2023-07-29T13:52:00;22.30;99.90
29201;DHT22;16244;51.956;12.980;2023-07-29T13:54:29;22.40;99.90
29201;DHT22;16244;51.956;12.980;2023-07-29T13:56:57;22.50;99.90
29201;DHT22;16244;51.956;12.980;2023-07-29T13:59:24;22.80;99.90
29201;DHT22;16244;51.956;12.980;2023-07-29T14:01:52;23.00;99.90
29201;DHT22;16244;51.956;12.980;2023-07-29T14:04:20;23.60;99.90
29201;DHT22;16244;51.956;12.980;2023-07-29T14:06:47;24.00;99.90
29201;DHT22;16244;51.956;12.980;2023-07-29T14:09:15;24.40;99.90
29201;DHT22;16244;51.956;12.980;2023-07-29T14:11:44;24.60;99.90
29201;DHT22;16244;51.956;12.980;2023-07-29T14:14:11;24.80;99.90
29201;DHT22;16244;51.956;12.980;2023-07-29T14:16:39;24.90;99.90
29201;DHT22;16244;51.956;12.980;2023-07-29T14:19:06;25.10;99.90
29201;DHT22;16244;51.956;12.980;2023-07-29T14:21:34;25.00;99.90
29201;DHT22;16244;51.956;12.980;2023-07-29T14:24:01;24.50;98.70
29201;DHT22;16244;51.956;12.980;2023-07-29T14:26:29;24.20;99.90
29201;DHT22;16244;51.956;12.980;2023-07-29T14:28:58;24.00;99.90
29201;DHT22;16244;51.956;12.980;2023-07-29T14:31:25;23.70;99.90
29201;DHT22;16244;51.956;12.980;2023-07-29T14:33:52;23.60;99.90
29201;DHT22;16244;51.956;12.980;2023-07-29T14:36:20;23.40;99.90
29201;DHT22;16244;51.956;12.980;2023-07-29T14:38:47;23.20;99.90
29201;DHT22;16244;51.956;12.980;2023-07-29T14:41:15;23.10;99.90
29201;DHT22;16244;51.956;12.980;2023-07-29T14:43:43;23.00;99.90
29201;DHT22;16244;51.956;12.980;2023-07-29T14:46:12;22.90;99.90
29201;DHT22;16244;51.956;12.980;2023-07-29T14:48:39;23.00;99.90
29201;DHT22;16244;51.956;12.980;2023-07-29T14:51:07;23.00;99.90
29201;DHT22;16244;51.956;12.980;2023-07-29T14:53:34;22.90;99.90
29201;DHT22;16244;51.956;12.980;2023-07-29T14:56:02;22.80;99.90
29201;DHT22;16244;51.956;12.980;2023-07-29T14:58:29;22.80;99.90
29201;DHT22;16244;51.956;12.980;2023-07-29T15:00:57;22.70;99.90
29201;DHT22;16244;51.956;12.980;2023-07-29T15:03:26;22.70;99.90
29201;DHT22;16244;51.956;12.980;2023-07-29T15:05:53;22.60;99.90
29201;DHT22;16244;51.956;12.980;2023-07-29T15:08:20;22.60;99.90
29201;DHT22;16244;51.956;12.980;2023-07-29T15:10:48;22.60;99.90
29201;DHT22;16244;51.956;12.980;2023-07-29T15:13:15;22.50;99.90
29201;DHT22;16244;51.956;12.980;2023-07-29T15:15:44;22.50;99.90
29201;DHT22;16244;51.956;12.980;2023-07-29T15:18:12;22.30;99.90
29201;DHT22;16244;51.956;12.980;2023-07-29T15:20:41;22.20;99.90
29201;DHT22;16244;51.956;12.980;2023-07-29T15:23:08;22.00;99.90
29201;DHT22;16244;51.956;12.980;2023-07-29T15:25:35;21.80;99.90
29201;DHT22;16244;51.956;12.980;2023-07-29T15:28:05;21.70;99.90
29201;DHT22;16244;51.956;12.980;2023-07-29T15:30:35;21.60;99.90
29201;DHT22;16244;51.956;12.980;2023-07-29T15:33:03;21.40;99.90
29201;DHT22;16244;51.956;12.980;2023-07-29T15:35:36;21.60;99.90
29201;DHT22;16244;51.956;12.980;2023-07-29T15:38:05;21.60;99.90